sensor_id;sensor_type;location;lat;lon;timestamp;temperature;humidity
6810;DHT22;3443;48.812;9.112;2023-11-19T00:00:10;8.00;99.90
6810;DHT22;3443;48.812;9.112;2023-11-19T00:02:41;8.20;99.90
6810;DHT22;3443;48.812;9.112;2023-11-19T00:05:08;8.20;99.90
6810;DHT22;3443;48.812;9.112;2023-11-19T00:07:37;8.30;99.90
6810;DHT22;3443;48.812;9.112;2023-11-19T00:10:14;8.30;99.90
6810;DHT22;3443;48.812;9.112;2023-11-19T00:12:45;8.40;99.90
6810;DHT22;3443;48.812;9.112;2023-11-19T00:15:11;8.50;99.90
6810;DHT22;3443;48.812;9.112;2023-11-19T00:17:44;8.50;99.90
6810;DHT22;3443;48.812;9.112;2023-11-19T00:20:14;8.50;99.90
6810;DHT22;3443;48.812;9.112;2023-11-19T00:22:40;8.60;99.90
6810;DHT22;3443;48.812;9.112;2023-11-19T00:25:06;8.60;99.90
6810;DHT22;3443;48.812;9.112;2023-11-19T00:27:32;8.70;99.90
6810;DHT22;3443;48.812;9.112;2023-11-19T00:29:57;8.80;99.90
6810;DHT22;3443;48.812;9.112;2023-11-19T00:32:23;8.80;99.90
6810;DHT22;3443;48.812;9.112;2023-11-19T00:34:49;8.80;99.90
6810;DHT22;3443;48.812;9.112;2023-11-19T00:37:15;8.90;99.90
6810;DHT22;3443;48.812;9.112;2023-11-19T00:39:44;8.90;99.90
6810;DHT22;3443;48.812;9.112;2023-11-19T00:42:10;9.00;99.90
6810;DHT22;3443;48.812;9.112;2023-11-19T00:44:36;9.00;99.90
6810;DHT22;3443;48.812;9.112;2023-11-19T00:47:02;9.00;99.90
6810;DHT22;3443;48.812;9.112;2023-11-19T00:49:27;9.00;99.90
6810;DHT22;3443;48.812;9.112;2023-11-19T00:56:45;9.10;99.90
6810;DHT22;3443;48.812;9.112;2023-11-19T00:59:11;9.20;99.90
6810;DHT22;3443;48.812;9.112;2023-11-19T01:01:36;9.20;99.90
6810;DHT22;3443;48.812;9.112;2023-11-19T01:06:31;9.20;99.90
6810;DHT22;3443;48.812;9.112;2023-11-19T01:08:57;9.20;99.90
6810;DHT22;3443;48.812;9.112;2023-11-19T01:11:24;9.20;99.90
6810;DHT22;3443;48.812;9.112;2023-11-19T01:13:50;9.20;99.90
6810;DHT22;3443;48.812;9.112;2023-11-19T01:16:16;9.20;99.90
6810;DHT22;3443;48.812;9.112;2023-11-19T01:18:42;9.20;99.90
6810;DHT22;3443;48.812;9.112;2023-11-19T01:23:34;9.30;99.90
6810;DHT22;3443;48.812;9.112;2023-11-19T01:28:26;9.40;99.90
6810;DHT22;3443;48.812;9.112;2023-11-19T01:30:51;9.30;99.90
6810;DHT22;3443;48.812;9.112;2023-11-19T01:33:17;9.40;99.90
6810;DHT22;3443;48.812;9.112;2023-11-19T01:35:43;9.40;99.90
6810;DHT22;3443;48.812;9.112;2023-11-19T01:43:04;9.40;99.90
6810;DHT22;3443;48.812;9.112;2023-11-19T01:50:23;9.50;99.90
6810;DHT22;3443;48.812;9.112;2023-11-19T01:52:53;9.50;99.90
6810;DHT22;3443;48.812;9.112;2023-11-19T02:19:52;9.50;99.90
6810;DHT22;3443;48.812;9.112;2023-11-19T02:39:30;9.60;99.90
6810;DHT22;3443;48.812;9.112;2023-11-19T02:41:56;9.70;99.90
6810;DHT22;3443;48.812;9.112;2023-11-19T02:44:22;9.60;99.90
6810;DHT22;3443;48.812;9.112;2023-11-19T03:06:42;9.70;99.90
6810;DHT22;3443;48.812;9.112;2023-11-19T03:11:36;9.80;99.90
6810;DHT22;3443;48.812;9.112;2023-11-19T03:14:01;9.70;99.90
6810;DHT22;3443;48.812;9.112;2023-11-19T03:18:54;9.70;99.90
6810;DHT22;3443;48.812;9.112;2023-11-19T03:21:30;8.80;99.90
6810;DHT22;3443;48.812;9.112;2023-11-19T03:53:12;9.90;99.90
6810;DHT22;3443;48.812;9.112;2023-11-19T03:55:37;10.00;99.90
6810;DHT22;3443;48.812;9.112;2023-11-19T03:58:03;9.90;99.90
6810;DHT22;3443;48.812;9.112;2023-11-19T04:05:21;9.90;99.90
6810;DHT22;3443;48.812;9.112;2023-11-19T04:10:12;10.00;99.90
6810;DHT22;3443;48.812;9.112;2023-11-19T04:22:24;10.20;99.90
6810;DHT22;3443;48.812;9.112;2023-11-19T04:32:07;10.30;99.90
6810;DHT22;3443;48.812;9.112;2023-11-19T04:34:33;10.30;99.90
6810;DHT22;3443;48.812;9.112;2023-11-19T04:36:58;10.40;99.90
6810;DHT22;3443;48.812;9.112;2023-11-19T04:39:27;10.30;99.90
6810;DHT22;3443;48.812;9.112;2023-11-19T04:44:19;10.40;99.90
6810;DHT22;3443;48.812;9.112;2023-11-19T05:11:19;10.40;99.90
6810;DHT22;3443;48.812;9.112;2023-11-19T05:16:11;10.50;99.90
6810;DHT22;3443;48.812;9.112;2023-11-19T05:45:31;10.70;99.90
6810;DHT22;3443;48.812;9.112;2023-11-19T06:00:08;11.00;99.90
6810;DHT22;3443;48.812;9.112;2023-11-19T06:36:42;10.90;99.90
6810;DHT22;3443;48.812;9.112;2023-11-19T06:41:37;10.90;99.90
6810;DHT22;3443;48.812;9.112;2023-11-19T06:44:04;10.80;99.90
6810;DHT22;3443;48.812;9.112;2023-11-19T06:46:30;10.90;99.90
6810;DHT22;3443;48.812;9.112;2023-11-19T06:48:56;11.00;99.90
6810;DHT22;3443;48.812;9.112;2023-11-19T06:53:50;11.00;99.90
6810;DHT22;3443;48.812;9.112;2023-11-19T07:15:53;10.90;99.90
6810;DHT22;3443;48.812;9.112;2023-11-19T07:20:47;10.90;99.90
6810;DHT22;3443;48.812;9.112;2023-11-19T07:25:42;11.00;99.90
6810;DHT22;3443;48.812;9.112;2023-11-19T07:28:08;11.10;99.90
6810;DHT22;3443;48.812;9.112;2023-11-19T07:30:35;11.10;99.90
6810;DHT22;3443;48.812;9.112;2023-11-19T07:37:56;11.20;99.90
6810;DHT22;3443;48.812;9.112;2023-11-19T07:40:23;11.40;99.90
6810;DHT22;3443;48.812;9.112;2023-11-19T07:45:15;11.40;99.90
6810;DHT22;3443;48.812;9.112;2023-11-19T07:47:40;11.30;99.90
6810;DHT22;3443;48.812;9.112;2023-11-19T07:57:24;11.40;99.90
6810;DHT22;3443;48.812;9.112;2023-11-19T08:04:42;11.40;99.90
6810;DHT22;3443;48.812;9.112;2023-11-19T08:09:36;11.50;99.90
6810;DHT22;3443;48.812;9.112;2023-11-19T08:19:21;11.80;99.90
6810;DHT22;3443;48.812;9.112;2023-11-19T08:21:46;11.50;99.90
6810;DHT22;3443;48.812;9.112;2023-11-19T08:26:38;11.70;99.90
6810;DHT22;3443;48.812;9.112;2023-11-19T08:29:03;11.80;99.90
6810;DHT22;3443;48.812;9.112;2023-11-19T08:31:29;11.90;99.90
6810;DHT22;3443;48.812;9.112;2023-11-19T08:33:54;12.00;99.90
6810;DHT22;3443;48.812;9.112;2023-11-19T08:36:20;12.00;99.90
6810;DHT22;3443;48.812;9.112;2023-11-19T08:38:46;12.10;99.90
6810;DHT22;3443;48.812;9.112;2023-11-19T08:41:13;12.30;99.90
6810;DHT22;3443;48.812;9.112;2023-11-19T08:43:39;12.30;99.90
6810;DHT22;3443;48.812;9.112;2023-11-19T08:46:10;12.60;99.90
6810;DHT22;3443;48.812;9.112;2023-11-19T08:48:36;12.60;99.90
6810;DHT22;3443;48.812;9.112;2023-11-19T08:51:01;12.50;99.90
6810;DHT22;3443;48.812;9.112;2023-11-19T08:55:53;12.50;99.90
6810;DHT22;3443;48.812;9.112;2023-11-19T08:58:18;12.40;99.90
6810;DHT22;3443;48.812;9.112;2023-11-19T09:00:44;12.30;99.90
6810;DHT22;3443;48.812;9.112;2023-11-19T09:05:35;12.30;99.90
6810;DHT22;3443;48.812;9.112;2023-11-19T09:08:02;12.40;99.90
6810;DHT22;3443;48.812;9.112;2023-11-19T09:25:07;12.80;99.90
6810;DHT22;3443;48.812;9.112;2023-11-19T09:27:32;12.70;99.90
6810;DHT22;3443;48.812;9.112;2023-11-19T09:37:16;12.60;99.90
6810;DHT22;3443;48.812;9.112;2023-11-19T09:39:42;12.80;99.90
6810;DHT22;3443;48.812;9.112;2023-11-19T09:42:11;12.90;99.90
6810;DHT22;3443;48.812;9.112;2023-11-19T09:47:05;12.90;99.90
6810;DHT22;3443;48.812;9.112;2023-11-19T09:51:58;13.20;99.90
6810;DHT22;3443;48.812;9.112;2023-11-19T09:54:24;13.30;99.90
6810;DHT22;3443;48.812;9.112;2023-11-19T09:56:50;13.30;99.90
6810;DHT22;3443;48.812;9.112;2023-11-19T09:59:16;13.20;99.90
6810;DHT22;3443;48.812;9.112;2023-11-19T10:01:42;13.30;99.90
6810;DHT22;3443;48.812;9.112;2023-11-19T10:04:09;13.30;99.90
6810;DHT22;3443;48.812;9.112;2023-11-19T10:06:35;13.30;99.90
6810;DHT22;3443;48.812;9.112;2023-11-19T10:23:53;14.30;99.90
6810;DHT22;3443;48.812;9.112;2023-11-19T10:26:22;14.40;99.90
6810;DHT22;3443;48.812;9.112;2023-11-19T10:28:48;14.30;99.90
6810;DHT22;3443;48.812;9.112;2023-11-19T10:31:15;14.30;99.90
6810;DHT22;3443;48.812;9.112;2023-11-19T10:33:40;14.40;99.90
6810;DHT22;3443;48.812;9.112;2023-11-19T10:36:07;14.40;99.90
6810;DHT22;3443;48.812;9.112;2023-11-19T10:38:32;14.40;99.90
6810;DHT22;3443;48.812;9.112;2023-11-19T10:40:58;14.40;99.90
6810;DHT22;3443;48.812;9.112;2023-11-19T10:43:24;14.50;99.90
6810;DHT22;3443;48.812;9.112;2023-11-19T10:45:51;14.50;99.90
6810;DHT22;3443;48.812;9.112;2023-11-19T10:48:17;14.50;99.90
6810;DHT22;3443;48.812;9.112;2023-11-19T10:50:44;14.60;99.90
6810;DHT22;3443;48.812;9.112;2023-11-19T10:53:12;14.60;99.90
6810;DHT22;3443;48.812;9.112;2023-11-19T10:55:41;14.70;99.90
6810;DHT22;3443;48.812;9.112;2023-11-19T10:58:09;14.70;99.90
6810;DHT22;3443;48.812;9.112;2023-11-19T11:00:57;14.70;99.90
6810;DHT22;3443;48.812;9.112;2023-11-19T11:03:26;14.80;99.90
6810;DHT22;3443;48.812;9.112;2023-11-19T11:05:56;14.70;99.90
6810;DHT22;3443;48.812;9.112;2023-11-19T11:08:21;14.60;99.90
6810;DHT22;3443;48.812;9.112;2023-11-19T11:10:52;14.60;99.90
6810;DHT22;3443;48.812;9.112;2023-11-19T11:13:18;14.60;99.90
6810;DHT22;3443;48.812;9.112;2023-11-19T11:15:48;14.60;99.90
6810;DHT22;3443;48.812;9.112;2023-11-19T11:18:13;14.60;99.90
6810;DHT22;3443;48.812;9.112;2023-11-19T11:20:39;14.50;99.90
6810;DHT22;3443;48.812;9.112;2023-11-19T11:28:41;14.40;99.90
6810;DHT22;3443;48.812;9.112;2023-11-19T11:31:22;14.40;99.90
6810;DHT22;3443;48.812;9.112;2023-11-19T11:39:50;14.40;99.90
6810;DHT22;3443;48.812;9.112;2023-11-19T11:50:15;14.30;99.90
6810;DHT22;3443;48.812;9.112;2023-11-19T11:55:34;14.10;99.90
6810;DHT22;3443;48.812;9.112;2023-11-19T11:58:02;14.10;99.90
6810;DHT22;3443;48.812;9.112;2023-11-19T12:00:32;14.10;99.90
6810;DHT22;3443;48.812;9.112;2023-11-19T12:03:02;14.20;99.90
6810;DHT22;3443;48.812;9.112;2023-11-19T12:05:29;14.40;99.90
6810;DHT22;3443;48.812;9.112;2023-11-19T12:08:00;14.60;99.90
6810;DHT22;3443;48.812;9.112;2023-11-19T12:10:29;14.70;99.90
6810;DHT22;3443;48.812;9.112;2023-11-19T12:13:00;14.80;99.90
6810;DHT22;3443;48.812;9.112;2023-11-19T12:15:26;14.80;99.90
6810;DHT22;3443;48.812;9.112;2023-11-19T12:17:54;15.00;99.90
6810;DHT22;3443;48.812;9.112;2023-11-19T12:20:24;15.10;99.90
6810;DHT22;3443;48.812;9.112;2023-11-19T12:22:51;15.20;99.90
6810;DHT22;3443;48.812;9.112;2023-11-19T12:27:46;15.30;99.90
6810;DHT22;3443;48.812;9.112;2023-11-19T12:30:16;15.10;99.90
6810;DHT22;3443;48.812;9.112;2023-11-19T12:32:45;15.10;99.90
6810;DHT22;3443;48.812;9.112;2023-11-19T12:35:12;15.20;99.90
6810;DHT22;3443;48.812;9.112;2023-11-19T12:37:46;15.30;99.90
6810;DHT22;3443;48.812;9.112;2023-11-19T12:40:16;15.40;99.90
6810;DHT22;3443;48.812;9.112;2023-11-19T12:42:45;15.30;99.90
6810;DHT22;3443;48.812;9.112;2023-11-19T12:45:12;15.10;99.90
6810;DHT22;3443;48.812;9.112;2023-11-19T12:47:39;15.10;99.90
6810;DHT22;3443;48.812;9.112;2023-11-19T12:50:06;15.10;99.90
6810;DHT22;3443;48.812;9.112;2023-11-19T12:52:33;15.20;99.90
6810;DHT22;3443;48.812;9.112;2023-11-19T12:54:58;15.20;99.90
6810;DHT22;3443;48.812;9.112;2023-11-19T12:57:41;15.30;99.90
6810;DHT22;3443;48.812;9.112;2023-11-19T13:00:08;15.30;99.90
6810;DHT22;3443;48.812;9.112;2023-11-19T13:02:46;15.30;99.90
6810;DHT22;3443;48.812;9.112;2023-11-19T13:05:28;15.10;99.90
6810;DHT22;3443;48.812;9.112;2023-11-19T13:10:27;15.00;99.90
6810;DHT22;3443;48.812;9.112;2023-11-19T13:13:05;15.00;99.90
6810;DHT22;3443;48.812;9.112;2023-11-19T13:15:32;14.90;99.90
6810;DHT22;3443;48.812;9.112;2023-11-19T13:17:58;14.90;99.90
6810;DHT22;3443;48.812;9.112;2023-11-19T13:20:23;14.80;99.90
6810;DHT22;3443;48.812;9.112;2023-11-19T13:23:06;14.70;99.90
6810;DHT22;3443;48.812;9.112;2023-11-19T13:25:36;14.80;99.90
6810;DHT22;3443;48.812;9.112;2023-11-19T13:28:01;14.80;99.90
6810;DHT22;3443;48.812;9.112;2023-11-19T13:30:27;14.80;99.90
6810;DHT22;3443;48.812;9.112;2023-11-19T13:32:54;14.70;99.90
6810;DHT22;3443;48.812;9.112;2023-11-19T13:35:20;14.70;99.90
6810;DHT22;3443;48.812;9.112;2023-11-19T13:37:47;14.70;99.90
6810;DHT22;3443;48.812;9.112;2023-11-19T13:40:13;14.70;99.90
6810;DHT22;3443;48.812;9.112;2023-11-19T13:42:42;14.70;99.90
6810;DHT22;3443;48.812;9.112;2023-11-19T13:45:09;14.70;99.90
6810;DHT22;3443;48.812;9.112;2023-11-19T13:47:38;14.80;99.90
6810;DHT22;3443;48.812;9.112;2023-11-19T13:50:10;14.80;99.90
6810;DHT22;3443;48.812;9.112;2023-11-19T13:52:37;14.70;99.90
6810;DHT22;3443;48.812;9.112;2023-11-19T13:55:07;14.70;99.90
6810;DHT22;3443;48.812;9.112;2023-11-19T13:57:38;14.70;99.90
6810;DHT22;3443;48.812;9.112;2023-11-19T14:00:05;14.60;99.90
6810;DHT22;3443;48.812;9.112;2023-11-19T14:02:45;14.60;99.90
6810;DHT22;3443;48.812;9.112;2023-11-19T14:05:12;14.60;99.90
6810;DHT22;3443;48.812;9.112;2023-11-19T14:07:41;14.50;99.90
6810;DHT22;3443;48.812;9.112;2023-11-19T14:10:07;14.50;99.90
6810;DHT22;3443;48.812;9.112;2023-11-19T14:12:34;14.40;99.90
6810;DHT22;3443;48.812;9.112;2023-11-19T14:15:01;14.40;99.90
6810;DHT22;3443;48.812;9.112;2023-11-19T14:17:27;14.30;99.90
6810;DHT22;3443;48.812;9.112;2023-11-19T14:19:52;14.30;99.90
6810;DHT22;3443;48.812;9.112;2023-11-19T14:22:18;14.30;99.90
6810;DHT22;3443;48.812;9.112;2023-11-19T14:24:43;14.20;99.90
6810;DHT22;3443;48.812;9.112;2023-11-19T14:27:09;14.20;99.90
6810;DHT22;3443;48.812;9.112;2023-11-19T14:29:36;14.10;99.90
6810;DHT22;3443;48.812;9.112;2023-11-19T14:32:02;14.00;99.90
6810;DHT22;3443;48.812;9.112;2023-11-19T14:34:29;13.90;99.90
6810;DHT22;3443;48.812;9.112;2023-11-19T14:36:55;13.90;99.90
6810;DHT22;3443;48.812;9.112;2023-11-19T14:39:20;13.80;99.90
6810;DHT22;3443;48.812;9.112;2023-11-19T14:41:46;13.80;99.90
6810;DHT22;3443;48.812;9.112;2023-11-19T14:44:12;13.70;99.90
6810;DHT22;3443;48.812;9.112;2023-11-19T14:46:38;13.70;99.90
6810;DHT22;3443;48.812;9.112;2023-11-19T14:49:04;13.70;99.90
6810;DHT22;3443;48.812;9.112;2023-11-19T14:51:30;13.70;99.90
6810;DHT22;3443;48.812;9.112;2023-11-19T14:53:55;13.60;99.90
6810;DHT22;3443;48.812;9.112;2023-11-19T14:56:21;13.60;99.90
6810;DHT22;3443;48.812;9.112;2023-11-19T14:58:47;13.60;99.90
6810;DHT22;3443;48.812;9.112;2023-11-19T15:01:13;13.60;99.90
6810;DHT22;3443;48.812;9.112;2023-11-19T15:03:38;13.60;99.90
6810;DHT22;3443;48.812;9.112;2023-11-19T15:06:04;13.50;99.90
6810;DHT22;3443;48.812;9.112;2023-11-19T15:08:30;13.50;99.90
6810;DHT22;3443;48.812;9.112;2023-11-19T15:10:55;13.50;99.90
6810;DHT22;3443;48.812;9.112;2023-11-19T15:13:23;13.50;99.90
6810;DHT22;3443;48.812;9.112;2023-11-19T15:15:49;13.40;99.90
6810;DHT22;3443;48.812;9.112;2023-11-19T15:18:15;13.40;99.90
6810;DHT22;3443;48.812;9.112;2023-11-19T15:20:43;13.40;99.90
6810;DHT22;3443;48.812;9.112;2023-11-19T15:23:15;13.30;99.90
6810;DHT22;3443;48.812;9.112;2023-11-19T15:25:42;13.30;99.90
6810;DHT22;3443;48.812;9.112;2023-11-19T15:28:07;13.20;99.90
6810;DHT22;3443;48.812;9.112;2023-11-19T15:30:33;13.10;99.90
6810;DHT22;3443;48.812;9.112;2023-11-19T15:32:59;13.10;99.90
6810;DHT22;3443;48.812;9.112;2023-11-19T15:35:24;13.00;99.90
6810;DHT22;3443;48.812;9.112;2023-11-19T15:37:50;13.00;99.90
6810;DHT22;3443;48.812;9.112;2023-11-19T15:40:15;12.90;99.90
6810;DHT22;3443;48.812;9.112;2023-11-19T15:42:41;12.90;99.90
6810;DHT22;3443;48.812;9.112;2023-11-19T15:45:09;12.90;99.90
6810;DHT22;3443;48.812;9.112;2023-11-19T15:47:35;12.80;99.90
6810;DHT22;3443;48.812;9.112;2023-11-19T15:50:01;12.80;99.90
6810;DHT22;3443;48.812;9.112;2023-11-19T15:52:27;12.70;99.90
6810;DHT22;3443;48.812;9.112;2023-11-19T15:54:53;12.70;99.90
6810;DHT22;3443;48.812;9.112;2023-11-19T15:57:18;12.60;99.90
6810;DHT22;3443;48.812;9.112;2023-11-19T15:59:44;12.60;99.90
6810;DHT22;3443;48.812;9.112;2023-11-19T16:02:10;12.60;99.90
6810;DHT22;3443;48.812;9.112;2023-11-19T16:04:35;12.60;99.90
6810;DHT22;3443;48.812;9.112;2023-11-19T16:07:01;12.60;99.90
6810;DHT22;3443;48.812;9.112;2023-11-19T16:09:26;12.50;99.90
6810;DHT22;3443;48.812;9.112;2023-11-19T16:11:53;12.40;99.90
6810;DHT22;3443;48.812;9.112;2023-11-19T16:14:20;12.40;99.90
6810;DHT22;3443;48.812;9.112;2023-11-19T16:16:45;12.40;99.90
6810;DHT22;3443;48.812;9.112;2023-11-19T16:19:11;12.40;99.90
6810;DHT22;3443;48.812;9.112;2023-11-19T16:21:36;12.40;99.90
6810;DHT22;3443;48.812;9.112;2023-11-19T16:24:02;12.40;99.90
6810;DHT22;3443;48.812;9.112;2023-11-19T16:26:28;12.30;99.90
6810;DHT22;3443;48.812;9.112;2023-11-19T16:28:56;12.30;99.90
6810;DHT22;3443;48.812;9.112;2023-11-19T16:31:22;12.30;99.90
6810;DHT22;3443;48.812;9.112;2023-11-19T16:33:48;12.30;99.90
6810;DHT22;3443;48.812;9.112;2023-11-19T16:36:15;12.30;99.90
6810;DHT22;3443;48.812;9.112;2023-11-19T16:38:41;12.20;99.90
6810;DHT22;3443;48.812;9.112;2023-11-19T16:41:06;12.10;99.90
6810;DHT22;3443;48.812;9.112;2023-11-19T16:43:32;12.10;99.90
6810;DHT22;3443;48.812;9.112;2023-11-19T16:45:58;12.00;99.90
6810;DHT22;3443;48.812;9.112;2023-11-19T16:48:23;12.00;99.90
6810;DHT22;3443;48.812;9.112;2023-11-19T16:50:50;12.00;99.90
6810;DHT22;3443;48.812;9.112;2023-11-19T16:53:16;12.00;99.90
6810;DHT22;3443;48.812;9.112;2023-11-19T16:55:42;12.00;99.90
6810;DHT22;3443;48.812;9.112;2023-11-19T16:58:07;11.90;99.90
6810;DHT22;3443;48.812;9.112;2023-11-19T17:00:35;11.90;99.90
6810;DHT22;3443;48.812;9.112;2023-11-19T17:03:03;12.00;99.90
6810;DHT22;3443;48.812;9.112;2023-11-19T17:05:30;11.90;99.90
6810;DHT22;3443;48.812;9.112;2023-11-19T17:07:58;11.90;99.90
6810;DHT22;3443;48.812;9.112;2023-11-19T17:10:24;11.80;99.90
6810;DHT22;3443;48.812;9.112;2023-11-19T17:12:49;11.80;99.90
6810;DHT22;3443;48.812;9.112;2023-11-19T17:15:15;11.90;99.90
6810;DHT22;3443;48.812;9.112;2023-11-19T17:17:41;11.90;99.90
6810;DHT22;3443;48.812;9.112;2023-11-19T17:20:07;11.90;99.90
6810;DHT22;3443;48.812;9.112;2023-11-19T17:22:35;11.90;99.90
6810;DHT22;3443;48.812;9.112;2023-11-19T17:25:02;11.90;99.90
6810;DHT22;3443;48.812;9.112;2023-11-19T17:27:29;11.80;99.90
6810;DHT22;3443;48.812;9.112;2023-11-19T17:29:56;11.80;99.90
6810;DHT22;3443;48.812;9.112;2023-11-19T17:32:22;11.80;99.90
6810;DHT22;3443;48.812;9.112;2023-11-19T17:34:47;11.80;99.90
6810;DHT22;3443;48.812;9.112;2023-11-19T17:37:13;11.70;99.90
6810;DHT22;3443;48.812;9.112;2023-11-19T17:39:38;11.70;99.90
6810;DHT22;3443;48.812;9.112;2023-11-19T17:42:04;11.80;99.90
6810;DHT22;3443;48.812;9.112;2023-11-19T17:44:30;11.80;99.90
6810;DHT22;3443;48.812;9.112;2023-11-19T17:46:55;11.80;99.90
6810;DHT22;3443;48.812;9.112;2023-11-19T17:49:21;11.80;99.90
6810;DHT22;3443;48.812;9.112;2023-11-19T17:51:46;11.80;99.90
6810;DHT22;3443;48.812;9.112;2023-11-19T17:54:12;11.80;99.90
6810;DHT22;3443;48.812;9.112;2023-11-19T17:56:37;11.90;99.90
6810;DHT22;3443;48.812;9.112;2023-11-19T17:59:05;11.90;99.90
6810;DHT22;3443;48.812;9.112;2023-11-19T18:01:30;11.90;99.90
6810;DHT22;3443;48.812;9.112;2023-11-19T18:03:56;11.90;99.90
6810;DHT22;3443;48.812;9.112;2023-11-19T18:06:21;11.90;99.90
6810;DHT22;3443;48.812;9.112;2023-11-19T18:08:47;11.90;99.90
6810;DHT22;3443;48.812;9.112;2023-11-19T18:11:14;11.90;99.90
6810;DHT22;3443;48.812;9.112;2023-11-19T18:13:40;11.90;99.90
6810;DHT22;3443;48.812;9.112;2023-11-19T18:16:05;11.90;99.90
6810;DHT22;3443;48.812;9.112;2023-11-19T18:18:31;11.90;99.90
6810;DHT22;3443;48.812;9.112;2023-11-19T18:20:57;11.90;99.90
6810;DHT22;3443;48.812;9.112;2023-11-19T18:23:23;11.90;99.90
6810;DHT22;3443;48.812;9.112;2023-11-19T18:25:48;11.90;99.90
6810;DHT22;3443;48.812;9.112;2023-11-19T18:28:15;11.90;99.90
6810;DHT22;3443;48.812;9.112;2023-11-19T18:30:44;11.80;99.90
6810;DHT22;3443;48.812;9.112;2023-11-19T18:33:10;11.80;99.90
6810;DHT22;3443;48.812;9.112;2023-11-19T18:35:36;11.80;99.90
6810;DHT22;3443;48.812;9.112;2023-11-19T18:38:02;11.80;99.90
6810;DHT22;3443;48.812;9.112;2023-11-19T18:40:28;11.80;99.90
6810;DHT22;3443;48.812;9.112;2023-11-19T18:42:54;11.80;99.90
6810;DHT22;3443;48.812;9.112;2023-11-19T18:45:19;11.80;99.90
6810;DHT22;3443;48.812;9.112;2023-11-19T18:47:46;11.70;99.90
6810;DHT22;3443;48.812;9.112;2023-11-19T18:50:13;11.70;99.90
6810;DHT22;3443;48.812;9.112;2023-11-19T18:52:39;11.70;99.90
6810;DHT22;3443;48.812;9.112;2023-11-19T18:55:05;11.60;99.90
6810;DHT22;3443;48.812;9.112;2023-11-19T18:57:31;11.60;99.90
6810;DHT22;3443;48.812;9.112;2023-11-19T18:59:57;11.60;99.90
6810;DHT22;3443;48.812;9.112;2023-11-19T19:02:22;11.70;99.90
6810;DHT22;3443;48.812;9.112;2023-11-19T19:04:48;11.70;99.90
6810;DHT22;3443;48.812;9.112;2023-11-19T19:07:14;11.60;99.90
6810;DHT22;3443;48.812;9.112;2023-11-19T19:09:40;11.60;99.90
6810;DHT22;3443;48.812;9.112;2023-11-19T19:12:06;11.60;99.90
6810;DHT22;3443;48.812;9.112;2023-11-19T19:14:32;11.60;99.90
6810;DHT22;3443;48.812;9.112;2023-11-19T19:16:57;11.50;99.90
6810;DHT22;3443;48.812;9.112;2023-11-19T19:19:23;11.50;99.90
6810;DHT22;3443;48.812;9.112;2023-11-19T19:21:49;11.40;99.90
6810;DHT22;3443;48.812;9.112;2023-11-19T19:24:15;11.40;99.90
6810;DHT22;3443;48.812;9.112;2023-11-19T19:26:41;11.30;99.90
6810;DHT22;3443;48.812;9.112;2023-11-19T19:29:07;11.20;99.90
6810;DHT22;3443;48.812;9.112;2023-11-19T19:31:33;11.20;99.90
6810;DHT22;3443;48.812;9.112;2023-11-19T19:33:58;11.20;99.90
6810;DHT22;3443;48.812;9.112;2023-11-19T19:36:25;11.10;99.90
6810;DHT22;3443;48.812;9.112;2023-11-19T19:38:50;11.10;99.90
6810;DHT22;3443;48.812;9.112;2023-11-19T19:41:16;11.00;99.90
6810;DHT22;3443;48.812;9.112;2023-11-19T19:43:42;11.00;99.90
6810;DHT22;3443;48.812;9.112;2023-11-19T19:46:07;10.90;99.90
6810;DHT22;3443;48.812;9.112;2023-11-19T19:48:34;10.90;99.90
6810;DHT22;3443;48.812;9.112;2023-11-19T19:51:00;10.90;99.90
6810;DHT22;3443;48.812;9.112;2023-11-19T19:53:28;10.90;99.90
6810;DHT22;3443;48.812;9.112;2023-11-19T19:55:53;10.90;99.90
6810;DHT22;3443;48.812;9.112;2023-11-19T19:58:19;10.90;99.90
6810;DHT22;3443;48.812;9.112;2023-11-19T20:00:45;10.80;99.90
6810;DHT22;3443;48.812;9.112;2023-11-19T20:03:12;10.80;99.90
6810;DHT22;3443;48.812;9.112;2023-11-19T20:05:39;10.80;99.90
6810;DHT22;3443;48.812;9.112;2023-11-19T20:08:04;10.80;99.90
6810;DHT22;3443;48.812;9.112;2023-11-19T20:10:31;10.80;99.90
6810;DHT22;3443;48.812;9.112;2023-11-19T20:12:58;10.80;99.90
6810;DHT22;3443;48.812;9.112;2023-11-19T20:15:26;10.80;99.90
6810;DHT22;3443;48.812;9.112;2023-11-19T20:17:52;10.80;99.90
6810;DHT22;3443;48.812;9.112;2023-11-19T20:20:17;10.70;99.90
6810;DHT22;3443;48.812;9.112;2023-11-19T20:22:43;10.70;99.90
6810;DHT22;3443;48.812;9.112;2023-11-19T20:25:09;10.60;99.90
6810;DHT22;3443;48.812;9.112;2023-11-19T20:27:36;10.60;99.90
6810;DHT22;3443;48.812;9.112;2023-11-19T20:30:01;10.50;99.90
6810;DHT22;3443;48.812;9.112;2023-11-19T20:32:27;10.50;99.90
6810;DHT22;3443;48.812;9.112;2023-11-19T20:34:53;10.40;99.90
6810;DHT22;3443;48.812;9.112;2023-11-19T20:37:18;10.30;99.90
6810;DHT22;3443;48.812;9.112;2023-11-19T20:39:44;10.30;99.90
6810;DHT22;3443;48.812;9.112;2023-11-19T20:42:09;10.30;99.90
6810;DHT22;3443;48.812;9.112;2023-11-19T20:44:35;10.40;99.90
6810;DHT22;3443;48.812;9.112;2023-11-19T20:47:02;10.40;99.90
6810;DHT22;3443;48.812;9.112;2023-11-19T20:49:30;10.40;99.90
6810;DHT22;3443;48.812;9.112;2023-11-19T20:51:55;10.50;99.90
6810;DHT22;3443;48.812;9.112;2023-11-19T20:54:21;10.50;99.90
6810;DHT22;3443;48.812;9.112;2023-11-19T20:56:47;10.40;99.90
6810;DHT22;3443;48.812;9.112;2023-11-19T20:59:12;10.50;99.90
6810;DHT22;3443;48.812;9.112;2023-11-19T21:01:42;10.40;99.90
6810;DHT22;3443;48.812;9.112;2023-11-19T21:04:07;10.40;99.90
6810;DHT22;3443;48.812;9.112;2023-11-19T21:06:33;10.40;99.90
6810;DHT22;3443;48.812;9.112;2023-11-19T21:08:58;10.40;99.90
6810;DHT22;3443;48.812;9.112;2023-11-19T21:11:24;10.30;99.90
6810;DHT22;3443;48.812;9.112;2023-11-19T21:13:50;10.30;99.90
6810;DHT22;3443;48.812;9.112;2023-11-19T21:16:15;10.30;99.90
6810;DHT22;3443;48.812;9.112;2023-11-19T21:18:41;10.30;99.90
6810;DHT22;3443;48.812;9.112;2023-11-19T21:21:06;10.20;99.90
6810;DHT22;3443;48.812;9.112;2023-11-19T21:23:32;10.30;99.90
6810;DHT22;3443;48.812;9.112;2023-11-19T21:25:58;10.40;99.90
6810;DHT22;3443;48.812;9.112;2023-11-19T21:28:27;10.50;99.90
6810;DHT22;3443;48.812;9.112;2023-11-19T21:30:56;10.50;99.90
6810;DHT22;3443;48.812;9.112;2023-11-19T21:33:26;10.40;99.90
6810;DHT22;3443;48.812;9.112;2023-11-19T21:35:55;10.50;99.90
6810;DHT22;3443;48.812;9.112;2023-11-19T21:38:23;10.50;99.90
6810;DHT22;3443;48.812;9.112;2023-11-19T21:40:50;10.40;99.90
6810;DHT22;3443;48.812;9.112;2023-11-19T21:43:19;10.10;99.90
6810;DHT22;3443;48.812;9.112;2023-11-19T21:45:45;10.50;99.90
6810;DHT22;3443;48.812;9.112;2023-11-19T21:48:11;10.50;99.90
6810;DHT22;3443;48.812;9.112;2023-11-19T21:50:36;10.60;99.90
6810;DHT22;3443;48.812;9.112;2023-11-19T21:53:02;10.60;99.90
6810;DHT22;3443;48.812;9.112;2023-11-19T21:55:28;10.60;99.90
6810;DHT22;3443;48.812;9.112;2023-11-19T21:57:56;10.50;99.90
6810;DHT22;3443;48.812;9.112;2023-11-19T22:00:22;10.50;99.90
6810;DHT22;3443;48.812;9.112;2023-11-19T22:02:47;10.40;99.90
6810;DHT22;3443;48.812;9.112;2023-11-19T22:05:15;10.40;99.90
6810;DHT22;3443;48.812;9.112;2023-11-19T22:07:43;10.50;99.90
6810;DHT22;3443;48.812;9.112;2023-11-19T22:10:09;10.40;99.90
6810;DHT22;3443;48.812;9.112;2023-11-19T22:12:35;10.40;99.90
6810;DHT22;3443;48.812;9.112;2023-11-19T22:15:00;10.40;99.90
6810;DHT22;3443;48.812;9.112;2023-11-19T22:17:26;10.40;99.90
6810;DHT22;3443;48.812;9.112;2023-11-19T22:19:52;10.40;99.90